createdAt,value
2019-04-21T00:02:05.569Z,8.07
2019-04-21T00:04:48.345Z,7.20
2019-04-21T00:07:29.707Z,6.53
2019-04-21T00:10:10.238Z,5.90
2019-04-21T00:12:35.857Z,7.33
2019-04-21T00:15:02.004Z,6.63
2019-04-21T00:17:24.161Z,9.13
2019-04-21T00:20:11.395Z,7.33
2019-04-21T00:22:41.400Z,9.17
2019-04-21T00:25:21.051Z,7.40
2019-04-21T00:28:03.209Z,8.27
2019-04-21T00:30:40.057Z,9.60
2019-04-21T00:33:04.584Z,7.23
2019-04-21T00:35:29.368Z,6.53
2019-04-21T00:38:18.374Z,7.23
2019-04-21T00:40:53.847Z,8.43
2019-04-21T00:43:26.571Z,8.03
2019-04-21T00:45:52.125Z,7.77
2019-04-21T00:48:36.367Z,6.90
2019-04-21T00:51:21.412Z,8.33
2019-04-21T00:53:51.570Z,7.73
2019-04-21T00:56:34.116Z,7.73
2019-04-21T00:58:59.991Z,7.53
2019-04-21T01:01:26.812Z,7.60
2019-04-21T01:04:04.389Z,8.63
2019-04-21T01:06:35.198Z,9.57
2019-04-21T01:09:09.507Z,6.87
2019-04-21T01:11:44.614Z,7.50
2019-04-21T01:14:12.083Z,9.73
2019-04-21T01:16:56.147Z,7.90
2019-04-21T01:19:32.063Z,9.30
2019-04-21T01:21:36.631Z,8.73
2019-04-21T01:24:13.443Z,8.80
2019-04-21T01:26:48.124Z,11.10
2019-04-21T01:29:35.198Z,9.00
2019-04-21T01:32:12.888Z,8.30
2019-04-21T01:34:39.258Z,9.20
2019-04-21T01:37:04.650Z,10.33
2019-04-21T01:39:42.662Z,10.27
2019-04-21T01:42:08.881Z,9.27
2019-04-21T01:44:44.533Z,8.97
2019-04-21T01:47:10.254Z,11.30
2019-04-21T01:49:41.852Z,8.73
2019-04-21T01:52:26.951Z,9.50
2019-04-21T01:55:12.811Z,9.30
2019-04-21T01:57:46.985Z,8.23
2019-04-21T02:00:13.402Z,7.60
2019-04-21T02:03:04.302Z,10.60
2019-04-21T02:05:37.459Z,10.10
2019-04-21T02:08:09.775Z,8.27
2019-04-21T02:10:51.109Z,10.97
2019-04-21T02:13:11.779Z,10.80
2019-04-21T02:15:52.831Z,9.93
2019-04-21T02:18:14.712Z,8.63
2019-04-21T02:20:41.350Z,8.23
2019-04-21T02:26:09.273Z,10.83
2019-04-21T02:31:22.791Z,8.47
2019-04-21T02:34:00.339Z,7.53
2019-04-21T02:39:08.111Z,8.60
2019-04-21T02:44:42.982Z,7.90
2019-04-21T02:47:16.727Z,8.70
2019-04-21T02:49:45.352Z,8.43
2019-04-21T02:52:13.486Z,9.33
2019-04-21T02:59:50.168Z,9.80
2019-04-21T03:05:05.257Z,7.97
2019-04-21T03:10:11.272Z,7.33
2019-04-21T03:15:25.522Z,9.57
2019-04-21T03:20:19.422Z,6.40
2019-04-21T03:22:53.526Z,7.33
2019-04-21T03:25:33.574Z,8.37
2019-04-21T03:28:04.960Z,8.57
2019-04-21T03:30:55.833Z,6.97
2019-04-21T03:38:06.153Z,9.90
2019-04-21T03:43:12.675Z,7.63
2019-04-21T03:45:42.352Z,8.03
2019-04-21T03:48:30.027Z,9.33
2019-04-21T03:50:50.847Z,7.37
2019-04-21T03:53:26.627Z,9.00
2019-04-21T04:04:45.754Z,7.97
2019-04-21T04:07:42.554Z,7.87
2019-04-21T04:10:09.705Z,8.40
2019-04-21T04:12:38.145Z,10.10
2019-04-21T04:15:14.084Z,8.53
2019-04-21T04:17:40.451Z,8.93
2019-04-21T04:20:18.893Z,7.43
2019-04-21T04:22:56.462Z,7.57
2019-04-21T04:25:19.186Z,8.37
2019-04-21T04:28:04.747Z,8.23
2019-04-21T04:30:31.989Z,7.33
2019-04-21T04:32:59.339Z,8.07
2019-04-21T04:35:52.831Z,8.73
2019-04-21T04:38:20.124Z,8.90
2019-04-21T04:41:01.812Z,7.07
2019-04-21T04:46:03.805Z,6.20
2019-04-21T04:48:37.513Z,7.97
2019-04-21T04:51:03.231Z,5.60
2019-04-21T04:56:20.758Z,6.80
2019-04-21T04:59:20.248Z,7.13
2019-04-21T05:01:38.167Z,6.43
2019-04-21T05:04:20.445Z,6.73
2019-04-21T05:14:21.294Z,5.80
2019-04-21T05:17:15.661Z,7.37
2019-04-21T05:19:45.054Z,6.93
2019-04-21T05:22:04.935Z,8.60
2019-04-21T05:24:25.355Z,7.03
2019-04-21T05:26:53.576Z,8.33
2019-04-21T05:29:20.423Z,5.60
2019-04-21T05:32:20.061Z,5.63
2019-04-21T05:35:00.227Z,6.30
2019-04-21T05:37:31.711Z,6.37
2019-04-21T05:39:57.966Z,6.67
2019-04-21T05:42:39.642Z,6.93
2019-04-21T05:45:23.041Z,6.73
2019-04-21T05:47:55.867Z,6.40
2019-04-21T05:50:30.540Z,6.47
2019-04-21T05:52:58.792Z,5.40
2019-04-21T05:55:45.957Z,6.47
2019-04-21T05:58:08.358Z,5.60
2019-04-21T06:03:26.731Z,7.27
2019-04-21T06:06:00.467Z,6.50
2019-04-21T06:08:25.892Z,6.00
2019-04-21T06:11:00.198Z,6.23
2019-04-21T06:16:14.416Z,7.47
2019-04-21T06:18:53.274Z,7.40
2019-04-21T06:21:16.431Z,6.70
2019-04-21T06:23:47.891Z,6.97
2019-04-21T06:29:15.441Z,8.40
2019-04-21T06:32:13.951Z,9.27
2019-04-21T06:34:16.742Z,8.27
2019-04-21T06:37:01.661Z,7.30
2019-04-21T06:39:31.928Z,8.27
2019-04-21T06:41:58.510Z,9.03
2019-04-21T06:44:32.805Z,7.53
2019-04-21T06:47:10.618Z,9.13
2019-04-21T06:49:31.430Z,7.90
2019-04-21T06:52:29.985Z,7.80
2019-04-21T06:57:22.091Z,7.50
2019-04-21T06:59:43.511Z,7.67
2019-04-21T07:02:36.126Z,10.63
2019-04-21T07:04:54.754Z,7.97
2019-04-21T07:07:21.715Z,6.90
2019-04-21T07:10:01.391Z,9.10
2019-04-21T07:12:30.949Z,7.17
2019-04-21T07:15:04.270Z,7.37
2019-04-21T07:17:32.618Z,6.10
2019-04-21T07:20:07.194Z,8.10
2019-04-21T07:22:44.614Z,6.87
2019-04-21T07:25:18.230Z,7.10
2019-04-21T07:27:53.773Z,7.53
2019-04-21T07:30:32.757Z,7.87
2019-04-21T07:33:21.949Z,8.70
2019-04-21T07:35:53.467Z,6.67
2019-04-21T07:38:14.190Z,6.85
2019-04-21T07:40:38.892Z,6.50
2019-04-21T07:43:18.192Z,8.03
2019-04-21T07:45:50.141Z,8.50
2019-04-21T07:48:37.602Z,6.67
2019-04-21T07:51:31.596Z,7.10
2019-04-21T07:54:23.272Z,7.22
2019-04-21T07:56:20.283Z,6.47
2019-04-21T07:59:02.099Z,6.45
2019-04-21T08:01:48.404Z,6.70
2019-04-21T08:04:33.144Z,6.20
2019-04-21T08:06:52.054Z,7.12
2019-04-21T08:09:19.536Z,6.65
2019-04-21T08:11:52.206Z,6.03
2019-04-21T08:14:28.648Z,7.55
2019-04-21T08:19:31.226Z,6.40
2019-04-21T08:22:12.490Z,6.75
2019-04-21T08:24:42.119Z,5.92
2019-04-21T08:27:20.265Z,6.05
2019-04-21T08:29:58.222Z,8.25
2019-04-21T08:32:51.568Z,8.90
2019-04-21T08:35:34.643Z,6.75
2019-04-21T08:37:46.087Z,7.05
2019-04-21T08:40:34.131Z,7.42
2019-04-21T08:43:21.703Z,6.22
2019-04-21T08:48:02.745Z,8.60
2019-04-21T08:50:38.930Z,7.40
2019-04-21T08:53:21.622Z,6.28
2019-04-21T08:58:30.511Z,6.53
2019-04-21T09:01:15.748Z,6.20
2019-04-21T09:06:56.717Z,7.20
2019-04-21T09:09:10.885Z,6.22
2019-04-21T09:11:43.254Z,6.45
2019-04-21T09:14:13.875Z,7.97
2019-04-21T09:16:51.344Z,8.40
2019-04-21T09:19:38.724Z,6.67
2019-04-21T09:22:02.330Z,7.23
2019-04-21T09:24:33.437Z,6.67
2019-04-21T09:27:03.779Z,6.40
2019-04-21T09:29:34.563Z,6.40
2019-04-21T09:31:59.480Z,7.47
2019-04-21T09:34:36.940Z,7.15
2019-04-21T09:37:15.410Z,6.40
2019-04-21T09:39:41.871Z,7.40
2019-04-21T09:42:06.613Z,7.77
2019-04-21T09:44:43.653Z,7.63
2019-04-21T09:47:18.994Z,8.33
2019-04-21T09:49:49.459Z,7.70
2019-04-21T09:52:23.188Z,8.03
2019-04-21T09:55:03.952Z,8.80
2019-04-21T09:57:38.786Z,7.80
2019-04-21T10:00:15.067Z,7.77
2019-04-21T10:02:49.815Z,8.87
2019-04-21T10:05:09.976Z,8.53
2019-04-21T10:07:44.846Z,7.67
2019-04-21T10:10:19.235Z,8.20
2019-04-21T10:12:49.937Z,8.67
2019-04-21T10:15:19.123Z,9.60
2019-04-21T10:17:58.709Z,7.63
2019-04-21T10:20:28.834Z,8.37
2019-04-21T10:23:03.028Z,6.60
2019-04-21T10:25:42.766Z,7.30
2019-04-21T10:28:07.538Z,9.17
2019-04-21T10:30:42.613Z,7.67
2019-04-21T10:33:16.927Z,8.60
2019-04-21T10:35:47.325Z,10.37
2019-04-21T10:38:28.248Z,8.63
2019-04-21T10:40:51.758Z,7.60
2019-04-21T10:43:22.289Z,6.97
2019-04-21T10:45:50.768Z,6.17
2019-04-21T10:48:21.021Z,8.20
2019-04-21T10:50:52.810Z,8.57
2019-04-21T10:53:23.066Z,8.27
2019-04-21T10:56:11.431Z,8.87
2019-04-21T10:58:34.363Z,7.50
2019-04-21T11:01:14.234Z,7.23
2019-04-21T11:03:53.156Z,7.17
2019-04-21T11:06:28.740Z,7.17
2019-04-21T11:08:57.899Z,7.33
2019-04-21T11:11:30.487Z,9.27
2019-04-21T11:14:02.442Z,6.80
2019-04-21T11:16:33.206Z,7.47
2019-04-21T11:19:04.043Z,8.37
2019-04-21T11:21:36.766Z,7.80
2019-04-21T11:24:06.028Z,6.27
2019-04-21T11:26:35.812Z,6.70
2019-04-21T11:29:12.927Z,6.80
2019-04-21T11:31:41.430Z,6.83
2019-04-21T11:34:11.219Z,8.17
2019-04-21T11:36:46.029Z,8.10
2019-04-21T11:39:29.222Z,6.50
2019-04-21T11:41:55.399Z,8.20
2019-04-21T11:44:27.158Z,8.63
2019-04-21T11:46:58.529Z,7.00
2019-04-21T11:49:30.224Z,7.07
2019-04-21T11:51:58.832Z,10.07
2019-04-21T11:54:30.960Z,7.93
2019-04-21T11:57:12.373Z,6.80
2019-04-21T11:59:43.857Z,6.37
2019-04-21T12:02:15.155Z,9.47
2019-04-21T12:04:49.541Z,8.93
2019-04-21T12:07:20.890Z,7.23
2019-04-21T12:09:55.515Z,10.10
2019-04-21T12:12:25.322Z,7.83
2019-04-21T12:14:54.247Z,6.70
2019-04-21T12:17:28.226Z,6.77
2019-04-21T12:20:06.470Z,6.90
2019-04-21T12:22:39.089Z,8.23
2019-04-21T12:25:09.450Z,6.63
2019-04-21T12:27:38.045Z,7.27
2019-04-21T12:30:19.872Z,8.03
2019-04-21T12:33:06.128Z,6.43
2019-04-21T12:35:37.770Z,7.93
2019-04-21T12:38:08.920Z,7.20
2019-04-21T12:40:40.725Z,7.43
2019-04-21T12:43:18.790Z,9.47
2019-04-21T12:45:47.666Z,7.43
2019-04-21T12:48:18.018Z,8.33
2019-04-21T12:50:55.411Z,7.73
2019-04-21T12:53:23.832Z,6.77
2019-04-21T12:55:57.875Z,6.47
2019-04-21T12:58:29.308Z,6.60
2019-04-21T13:00:58.936Z,7.73
2019-04-21T13:03:39.707Z,6.67
2019-04-21T13:06:09.731Z,6.33
2019-04-21T13:08:57.885Z,7.57
2019-04-21T13:11:23.275Z,7.83
2019-04-21T13:14:09.608Z,8.30
2019-04-21T13:16:43.399Z,6.40
2019-04-21T13:19:13.123Z,6.53
2019-04-21T13:21:45.757Z,9.17
2019-04-21T13:24:22.071Z,6.07
2019-04-21T13:27:01.570Z,6.80
2019-04-21T13:29:36.774Z,7.60
2019-04-21T13:32:08.888Z,6.70
2019-04-21T13:34:50.931Z,7.60
2019-04-21T13:37:11.828Z,6.37
2019-04-21T13:40:09.102Z,6.83
2019-04-21T13:42:38.333Z,7.27
2019-04-21T13:45:04.855Z,6.63
2019-04-21T13:47:36.797Z,6.50
2019-04-21T13:50:08.729Z,5.63
2019-04-21T13:52:38.646Z,5.30
2019-04-21T13:55:09.641Z,5.93
2019-04-21T13:57:48.255Z,6.77
2019-04-21T14:00:17.434Z,6.27
2019-04-21T14:02:50.021Z,7.60
2019-04-21T14:05:18.505Z,7.50
2019-04-21T14:07:48.589Z,6.80
2019-04-21T14:10:17.895Z,5.80
2019-04-21T14:12:48.772Z,6.60
2019-04-21T14:15:22.514Z,6.07
2019-04-21T14:17:54.807Z,6.07
2019-04-21T14:20:25.329Z,6.17
2019-04-21T14:22:54.010Z,5.90
2019-04-21T14:25:23.786Z,8.57
2019-04-21T14:27:55.708Z,5.90
2019-04-21T14:30:28.454Z,7.63
2019-04-21T14:33:02.653Z,5.70
2019-04-21T14:35:41.015Z,6.17
2019-04-21T14:38:22.773Z,8.70
2019-04-21T14:40:54.387Z,6.13
2019-04-21T14:43:25.854Z,6.03
2019-04-21T14:46:04.843Z,8.17
2019-04-21T14:48:43.734Z,5.80
2019-04-21T14:51:31.476Z,6.10
2019-04-21T14:54:01.805Z,5.67
2019-04-21T14:56:31.293Z,7.13
2019-04-21T14:59:01.352Z,5.70
2019-04-21T15:01:33.738Z,6.30
2019-04-21T15:04:07.987Z,6.67
2019-04-21T15:06:37.115Z,5.87
2019-04-21T15:09:13.375Z,6.57
2019-04-21T15:11:42.231Z,5.57
2019-04-21T15:14:13.848Z,6.43
2019-04-21T15:16:42.826Z,6.07
2019-04-21T15:19:17.295Z,7.07
2019-04-21T15:21:48.134Z,5.87
2019-04-21T15:24:18.305Z,8.00
2019-04-21T15:26:52.735Z,4.80
2019-04-21T15:29:22.540Z,5.10
2019-04-21T15:31:54.630Z,5.23
2019-04-21T15:34:25.917Z,5.43
2019-04-21T15:36:53.798Z,7.37
2019-04-21T15:39:28.095Z,7.20
2019-04-21T15:42:00.441Z,5.70
2019-04-21T15:44:30.483Z,6.40
2019-04-21T15:46:59.777Z,8.50
2019-04-21T15:49:40.543Z,7.13
2019-04-21T15:52:04.199Z,5.43
2019-04-21T15:54:32.858Z,5.93
2019-04-21T15:57:06.871Z,5.33
2019-04-21T15:59:54.918Z,6.30
2019-04-21T16:02:42.517Z,7.23
2019-04-21T16:05:16.992Z,8.77
2019-04-21T16:07:49.888Z,7.40
2019-04-21T16:10:34.354Z,7.13
2019-04-21T16:12:53.841Z,5.77
2019-04-21T16:15:26.299Z,5.07
2019-04-21T16:17:57.207Z,5.27
2019-04-21T16:20:25.981Z,5.40
2019-04-21T16:22:54.912Z,7.90
2019-04-21T16:25:23.914Z,5.57
2019-04-21T16:27:55.309Z,6.83
2019-04-21T16:30:25.998Z,5.50
2019-04-21T16:32:54.827Z,5.67
2019-04-21T16:35:26.718Z,4.50
2019-04-21T16:37:59.460Z,6.60
2019-04-21T16:40:39.755Z,5.17
2019-04-21T16:42:58.463Z,6.87
2019-04-21T16:45:30.698Z,4.93
2019-04-21T16:48:03.425Z,5.20
2019-04-21T16:50:31.930Z,5.10
2019-04-21T16:53:08.298Z,5.73
2019-04-21T16:55:51.018Z,5.23
2019-04-21T16:58:36.705Z,5.27
2019-04-21T17:01:16.352Z,5.47
2019-04-21T17:03:44.419Z,5.07
2019-04-21T17:06:17.262Z,7.17
2019-04-21T17:08:47.522Z,6.70
2019-04-21T17:11:20.706Z,5.57
2019-04-21T17:13:49.980Z,5.43
2019-04-21T17:19:00.588Z,6.03
2019-04-21T17:21:30.150Z,4.97
2019-04-21T17:24:08.340Z,4.10
2019-04-21T17:26:39.394Z,6.07
2019-04-21T17:29:10.271Z,5.23
2019-04-21T17:31:41.433Z,4.37
2019-04-21T17:34:17.992Z,7.87
2019-04-21T17:36:47.274Z,5.83
2019-04-21T17:39:22.859Z,4.47
2019-04-21T17:42:05.542Z,6.40
2019-04-21T17:44:27.737Z,7.17
2019-04-21T17:47:05.244Z,7.60
2019-04-21T17:49:32.971Z,7.03
2019-04-21T17:52:09.807Z,15.70
2019-04-21T17:54:46.904Z,11.47
2019-04-21T17:57:36.769Z,13.97
2019-04-21T18:00:04.200Z,14.03
2019-04-21T18:02:36.753Z,11.43
2019-04-21T18:05:08.599Z,7.60
2019-04-21T18:07:47.342Z,7.07
2019-04-21T18:10:11.460Z,7.40
2019-04-21T18:12:39.983Z,6.13
2019-04-21T18:15:16.715Z,7.10
2019-04-21T18:17:29.835Z,12.63
2019-04-21T18:19:59.685Z,9.97
2019-04-21T18:22:37.089Z,9.10
2019-04-21T18:25:06.766Z,11.80
2019-04-21T18:27:36.642Z,9.00
2019-04-21T18:30:26.455Z,9.13
2019-04-21T18:32:57.920Z,7.50
2019-04-21T18:35:29.315Z,10.23
2019-04-21T18:38:08.134Z,8.40
2019-04-21T18:40:36.403Z,7.60
2019-04-21T18:43:43.736Z,7.47
2019-04-21T18:46:29.495Z,7.23
2019-04-21T18:48:44.712Z,7.73
2019-04-21T18:51:19.224Z,8.17
2019-04-21T18:54:22.548Z,6.03
2019-04-21T18:56:51.382Z,6.43
2019-04-21T18:59:12.223Z,6.00
2019-04-21T19:01:51.463Z,5.97
2019-04-21T19:04:20.535Z,7.17
2019-04-21T19:07:03.009Z,5.60
2019-04-21T19:09:47.379Z,7.00
2019-04-21T19:12:10.193Z,8.43
2019-04-21T19:14:50.834Z,6.90
2019-04-21T19:20:02.626Z,7.47
2019-04-21T19:22:15.592Z,6.13
2019-04-21T19:24:49.034Z,8.47
2019-04-21T19:27:22.695Z,9.57
2019-04-21T19:32:28.922Z,9.37
2019-04-21T19:34:49.321Z,8.23
2019-04-21T19:37:20.446Z,11.20
2019-04-21T19:40:00.471Z,11.10
2019-04-21T19:42:30.705Z,15.97
2019-04-21T19:45:06.127Z,11.13
2019-04-21T19:47:42.269Z,9.20
2019-04-21T19:50:05.932Z,10.83
2019-04-21T19:52:34.055Z,12.17
2019-04-21T19:54:52.615Z,10.80
2019-04-21T19:57:29.531Z,11.03
2019-04-21T20:00:04.281Z,8.13
2019-04-21T20:02:38.426Z,11.83
2019-04-21T20:05:20.473Z,8.33
2019-04-21T20:08:01.363Z,8.73
2019-04-21T20:10:33.375Z,10.30
2019-04-21T20:13:07.840Z,10.00
2019-04-21T20:15:41.992Z,10.20
2019-04-21T20:18:06.245Z,9.20
2019-04-21T20:20:22.887Z,13.93
2019-04-21T20:22:57.473Z,11.63
2019-04-21T20:25:29.062Z,12.80
2019-04-21T20:28:14.745Z,8.03
2019-04-21T20:30:58.395Z,8.97
2019-04-21T20:33:49.239Z,14.57
2019-04-21T20:36:01.396Z,12.13
2019-04-21T20:38:24.762Z,15.47
2019-04-21T20:40:52.639Z,13.73
2019-04-21T20:43:38.725Z,15.93
2019-04-21T20:46:03.682Z,9.63
2019-04-21T20:48:34.496Z,9.13
2019-04-21T20:51:18.306Z,7.53
2019-04-21T20:53:47.797Z,8.70
2019-04-21T20:56:13.075Z,8.93
2019-04-21T20:58:55.476Z,10.27
2019-04-21T21:04:02.406Z,13.80
2019-04-21T21:06:38.529Z,15.90
2019-04-21T21:09:10.398Z,13.23
2019-04-21T21:11:56.774Z,17.80
2019-04-21T21:14:23.183Z,15.47
2019-04-21T21:16:58.122Z,13.17
2019-04-21T21:19:30.167Z,13.63
2019-04-21T21:21:53.992Z,11.70
2019-04-21T21:24:36.408Z,13.63
2019-04-21T21:27:05.681Z,10.20
2019-04-21T21:29:33.632Z,11.23
2019-04-21T21:32:14.997Z,9.63
2019-04-21T21:34:41.186Z,12.20
2019-04-21T21:37:12.921Z,11.50
2019-04-21T21:39:57.292Z,13.03
2019-04-21T21:42:08.030Z,13.87
2019-04-21T21:44:40.737Z,11.47
2019-04-21T21:47:24.142Z,10.47
2019-04-21T21:49:52.875Z,11.40
2019-04-21T21:52:25.921Z,10.10
2019-04-21T21:54:45.648Z,12.13
2019-04-21T21:57:16.864Z,11.03
2019-04-21T21:59:58.881Z,10.70
2019-04-21T22:02:33.494Z,10.93
2019-04-21T22:05:01.393Z,11.23
2019-04-21T22:07:35.150Z,8.77
2019-04-21T22:10:06.440Z,10.13
2019-04-21T22:12:44.870Z,10.17
2019-04-21T22:15:14.632Z,11.33
2019-04-21T22:17:53.998Z,10.07
2019-04-21T22:20:40.122Z,7.30
2019-04-21T22:22:57.530Z,8.87
2019-04-21T22:25:26.893Z,11.10
2019-04-21T22:27:55.650Z,9.50
2019-04-21T22:30:32.830Z,9.27
2019-04-21T22:33:10.833Z,8.10
2019-04-21T22:35:45.317Z,8.13
2019-04-21T22:38:26.996Z,9.07
2019-04-21T22:41:19.226Z,9.17
2019-04-21T22:43:44.543Z,7.17
2019-04-21T22:46:15.484Z,7.43
2019-04-21T22:48:47.678Z,8.20
2019-04-21T22:51:20.610Z,8.03
2019-04-21T22:53:49.936Z,7.67
2019-04-21T22:56:23.596Z,8.30
2019-04-21T22:58:55.015Z,7.43
2019-04-21T23:01:33.713Z,7.20
2019-04-21T23:04:02.448Z,7.13
2019-04-21T23:06:35.684Z,7.53
2019-04-21T23:09:12.897Z,8.13
2019-04-21T23:11:46.985Z,8.10
2019-04-21T23:14:17.038Z,9.50
2019-04-21T23:16:45.977Z,6.00
2019-04-21T23:19:29.349Z,6.13
2019-04-21T23:22:04.213Z,6.80
2019-04-21T23:24:42.174Z,7.20
2019-04-21T23:27:05.947Z,6.83
2019-04-21T23:29:47.566Z,8.13
2019-04-21T23:32:14.901Z,7.17
2019-04-21T23:34:36.773Z,8.07
2019-04-21T23:37:14.185Z,7.57
2019-04-21T23:39:37.637Z,8.53
2019-04-21T23:42:09.188Z,9.23
2019-04-21T23:44:45.542Z,7.70
2019-04-21T23:47:30.338Z,7.37
2019-04-21T23:49:53.139Z,5.93
2019-04-21T23:52:21.780Z,7.03
2019-04-21T23:54:56.310Z,7.10
2019-04-21T23:57:35.338Z,6.30
